sensor_id;sensor_type;location;lat;lon;timestamp;temperature;humidity
14749;DHT22;7466;53.574;9.976;2023-03-13T00:01:50;7.20;99.90
14749;DHT22;7466;53.574;9.976;2023-03-13T00:04:18;7.20;99.90
14749;DHT22;7466;53.574;9.976;2023-03-13T00:06:45;7.20;99.90
14749;DHT22;7466;53.574;9.976;2023-03-13T00:09:14;7.20;99.90
14749;DHT22;7466;53.574;9.976;2023-03-13T00:11:41;7.20;99.90
14749;DHT22;7466;53.574;9.976;2023-03-13T00:14:09;7.20;99.90
14749;DHT22;7466;53.574;9.976;2023-03-13T00:16:39;7.20;99.90
14749;DHT22;7466;53.574;9.976;2023-03-13T00:19:07;7.10;99.90
14749;DHT22;7466;53.574;9.976;2023-03-13T00:21:34;7.20;99.90
14749;DHT22;7466;53.574;9.976;2023-03-13T00:24:03;7.20;99.90
14749;DHT22;7466;53.574;9.976;2023-03-13T00:26:30;7.20;99.90
14749;DHT22;7466;53.574;9.976;2023-03-13T00:28:57;7.30;99.90
14749;DHT22;7466;53.574;9.976;2023-03-13T00:31:25;7.30;99.90
14749;DHT22;7466;53.574;9.976;2023-03-13T00:33:56;7.30;99.90
14749;DHT22;7466;53.574;9.976;2023-03-13T00:36:25;7.30;99.90
14749;DHT22;7466;53.574;9.976;2023-03-13T00:38:54;7.30;99.90
14749;DHT22;7466;53.574;9.976;2023-03-13T00:41:23;7.30;99.90
14749;DHT22;7466;53.574;9.976;2023-03-13T00:43:51;7.30;99.90
14749;DHT22;7466;53.574;9.976;2023-03-13T00:46:19;7.30;99.90
14749;DHT22;7466;53.574;9.976;2023-03-13T00:48:46;7.40;99.90
14749;DHT22;7466;53.574;9.976;2023-03-13T00:51:30;7.40;99.90
14749;DHT22;7466;53.574;9.976;2023-03-13T00:53:58;7.40;99.90
14749;DHT22;7466;53.574;9.976;2023-03-13T00:56:29;7.40;99.90
14749;DHT22;7466;53.574;9.976;2023-03-13T00:58:58;7.40;99.90
14749;DHT22;7466;53.574;9.976;2023-03-13T01:01:28;7.40;99.90
14749;DHT22;7466;53.574;9.976;2023-03-13T01:03:56;7.50;99.90
14749;DHT22;7466;53.574;9.976;2023-03-13T01:06:25;7.50;99.90
14749;DHT22;7466;53.574;9.976;2023-03-13T01:08:54;7.50;99.90
14749;DHT22;7466;53.574;9.976;2023-03-13T01:11:22;7.50;99.90
14749;DHT22;7466;53.574;9.976;2023-03-13T01:13:53;7.50;99.90
14749;DHT22;7466;53.574;9.976;2023-03-13T01:16:20;7.60;99.90
14749;DHT22;7466;53.574;9.976;2023-03-13T01:18:49;7.60;99.90
14749;DHT22;7466;53.574;9.976;2023-03-13T01:21:17;7.60;99.90
14749;DHT22;7466;53.574;9.976;2023-03-13T01:23:45;7.60;99.90
14749;DHT22;7466;53.574;9.976;2023-03-13T01:26:26;7.70;99.90
14749;DHT22;7466;53.574;9.976;2023-03-13T01:28:54;7.70;99.90
14749;DHT22;7466;53.574;9.976;2023-03-13T01:31:24;7.70;99.90
14749;DHT22;7466;53.574;9.976;2023-03-13T01:33:53;7.70;99.90
14749;DHT22;7466;53.574;9.976;2023-03-13T01:36:20;7.70;99.90
14749;DHT22;7466;53.574;9.976;2023-03-13T01:38:48;7.70;99.90
14749;DHT22;7466;53.574;9.976;2023-03-13T01:41:16;7.80;99.90
14749;DHT22;7466;53.574;9.976;2023-03-13T01:43:44;7.80;99.90
14749;DHT22;7466;53.574;9.976;2023-03-13T01:46:14;7.80;99.90
14749;DHT22;7466;53.574;9.976;2023-03-13T01:48:46;7.80;99.90
14749;DHT22;7466;53.574;9.976;2023-03-13T01:51:18;7.80;99.90
14749;DHT22;7466;53.574;9.976;2023-03-13T01:53:50;7.80;99.90
14749;DHT22;7466;53.574;9.976;2023-03-13T01:56:23;7.80;99.90
14749;DHT22;7466;53.574;9.976;2023-03-13T01:58:55;7.70;99.90
14749;DHT22;7466;53.574;9.976;2023-03-13T02:01:23;7.80;99.90
14749;DHT22;7466;53.574;9.976;2023-03-13T02:03:51;7.70;99.90
14749;DHT22;7466;53.574;9.976;2023-03-13T02:06:28;7.80;99.90
14749;DHT22;7466;53.574;9.976;2023-03-13T02:08:59;7.70;99.90
14749;DHT22;7466;53.574;9.976;2023-03-13T02:11:37;7.70;99.90
14749;DHT22;7466;53.574;9.976;2023-03-13T02:14:07;7.80;99.90
14749;DHT22;7466;53.574;9.976;2023-03-13T02:16:34;7.80;99.90
14749;DHT22;7466;53.574;9.976;2023-03-13T02:19:09;7.80;99.90
14749;DHT22;7466;53.574;9.976;2023-03-13T02:21:46;7.80;99.90
14749;DHT22;7466;53.574;9.976;2023-03-13T02:24:23;7.90;99.90
14749;DHT22;7466;53.574;9.976;2023-03-13T02:26:52;7.90;99.90
14749;DHT22;7466;53.574;9.976;2023-03-13T02:29:20;7.90;99.90
14749;DHT22;7466;53.574;9.976;2023-03-13T02:31:47;7.90;99.90
14749;DHT22;7466;53.574;9.976;2023-03-13T02:34:20;7.90;99.90
14749;DHT22;7466;53.574;9.976;2023-03-13T02:36:48;7.90;99.90
14749;DHT22;7466;53.574;9.976;2023-03-13T02:39:17;8.00;99.90
14749;DHT22;7466;53.574;9.976;2023-03-13T02:41:46;7.90;99.90
14749;DHT22;7466;53.574;9.976;2023-03-13T02:44:15;7.90;99.90
14749;DHT22;7466;53.574;9.976;2023-03-13T02:46:45;7.90;99.90
14749;DHT22;7466;53.574;9.976;2023-03-13T02:49:20;8.00;99.90
14749;DHT22;7466;53.574;9.976;2023-03-13T02:51:48;7.90;99.90
14749;DHT22;7466;53.574;9.976;2023-03-13T02:54:18;7.90;99.90
14749;DHT22;7466;53.574;9.976;2023-03-13T02:56:48;7.90;99.90
14749;DHT22;7466;53.574;9.976;2023-03-13T02:59:27;7.90;99.90
14749;DHT22;7466;53.574;9.976;2023-03-13T03:01:54;8.00;99.90
14749;DHT22;7466;53.574;9.976;2023-03-13T03:04:22;7.90;99.90
14749;DHT22;7466;53.574;9.976;2023-03-13T03:06:49;7.90;99.90
14749;DHT22;7466;53.574;9.976;2023-03-13T03:09:17;7.90;99.90
14749;DHT22;7466;53.574;9.976;2023-03-13T03:11:44;7.90;99.90
14749;DHT22;7466;53.574;9.976;2023-03-13T03:14:12;7.90;99.90
14749;DHT22;7466;53.574;9.976;2023-03-13T03:16:42;7.90;99.90
14749;DHT22;7466;53.574;9.976;2023-03-13T03:19:09;7.90;99.90
14749;DHT22;7466;53.574;9.976;2023-03-13T03:21:36;7.90;99.90
14749;DHT22;7466;53.574;9.976;2023-03-13T03:24:03;7.90;99.90
14749;DHT22;7466;53.574;9.976;2023-03-13T03:26:30;7.90;99.90
14749;DHT22;7466;53.574;9.976;2023-03-13T03:28:58;7.90;99.90
14749;DHT22;7466;53.574;9.976;2023-03-13T03:31:33;8.00;99.90
14749;DHT22;7466;53.574;9.976;2023-03-13T03:34:02;8.00;99.90
14749;DHT22;7466;53.574;9.976;2023-03-13T03:36:29;8.00;99.90
14749;DHT22;7466;53.574;9.976;2023-03-13T03:38:56;7.90;99.90
14749;DHT22;7466;53.574;9.976;2023-03-13T03:41:23;7.90;99.90
14749;DHT22;7466;53.574;9.976;2023-03-13T03:43:50;7.90;99.90
14749;DHT22;7466;53.574;9.976;2023-03-13T03:46:17;7.90;99.90
14749;DHT22;7466;53.574;9.976;2023-03-13T03:48:44;7.90;99.90
14749;DHT22;7466;53.574;9.976;2023-03-13T03:51:13;7.80;99.90
14749;DHT22;7466;53.574;9.976;2023-03-13T03:53:40;7.80;99.90
14749;DHT22;7466;53.574;9.976;2023-03-13T03:56:08;7.80;99.90
14749;DHT22;7466;53.574;9.976;2023-03-13T03:58:34;7.80;99.90
14749;DHT22;7466;53.574;9.976;2023-03-13T04:01:01;7.80;99.90
14749;DHT22;7466;53.574;9.976;2023-03-13T04:03:28;7.80;99.90
14749;DHT22;7466;53.574;9.976;2023-03-13T04:05:55;7.80;99.90
14749;DHT22;7466;53.574;9.976;2023-03-13T04:08:24;7.70;99.90
14749;DHT22;7466;53.574;9.976;2023-03-13T04:10:54;7.70;99.90
14749;DHT22;7466;53.574;9.976;2023-03-13T04:13:21;7.70;99.90
14749;DHT22;7466;53.574;9.976;2023-03-13T04:15:47;7.70;99.90
14749;DHT22;7466;53.574;9.976;2023-03-13T04:18:14;7.70;99.90
14749;DHT22;7466;53.574;9.976;2023-03-13T04:20:41;7.70;99.90
14749;DHT22;7466;53.574;9.976;2023-03-13T04:23:08;7.70;99.90
14749;DHT22;7466;53.574;9.976;2023-03-13T04:25:38;7.70;99.90
14749;DHT22;7466;53.574;9.976;2023-03-13T04:28:05;7.70;99.90
14749;DHT22;7466;53.574;9.976;2023-03-13T04:30:32;7.70;99.90
14749;DHT22;7466;53.574;9.976;2023-03-13T04:32:59;7.70;99.90
14749;DHT22;7466;53.574;9.976;2023-03-13T04:35:26;7.70;99.90
14749;DHT22;7466;53.574;9.976;2023-03-13T04:37:53;7.70;99.90
14749;DHT22;7466;53.574;9.976;2023-03-13T04:40:20;7.60;99.90
14749;DHT22;7466;53.574;9.976;2023-03-13T04:42:48;7.60;99.90
14749;DHT22;7466;53.574;9.976;2023-03-13T04:45:15;7.60;99.90
14749;DHT22;7466;53.574;9.976;2023-03-13T04:47:42;7.60;99.90
14749;DHT22;7466;53.574;9.976;2023-03-13T04:50:09;7.60;99.90
14749;DHT22;7466;53.574;9.976;2023-03-13T04:52:36;7.60;99.90
14749;DHT22;7466;53.574;9.976;2023-03-13T04:55:06;7.60;99.90
14749;DHT22;7466;53.574;9.976;2023-03-13T04:57:34;7.50;99.90
14749;DHT22;7466;53.574;9.976;2023-03-13T05:00:03;7.50;99.90
14749;DHT22;7466;53.574;9.976;2023-03-13T05:02:32;7.50;99.90
14749;DHT22;7466;53.574;9.976;2023-03-13T05:04:59;7.50;99.90
14749;DHT22;7466;53.574;9.976;2023-03-13T05:07:26;7.50;99.90
14749;DHT22;7466;53.574;9.976;2023-03-13T05:09:53;7.50;99.90
14749;DHT22;7466;53.574;9.976;2023-03-13T05:12:19;7.50;99.90
14749;DHT22;7466;53.574;9.976;2023-03-13T05:14:46;7.50;99.90
14749;DHT22;7466;53.574;9.976;2023-03-13T05:17:16;7.50;99.90
14749;DHT22;7466;53.574;9.976;2023-03-13T05:19:43;7.50;99.90
14749;DHT22;7466;53.574;9.976;2023-03-13T05:22:09;7.50;99.90
14749;DHT22;7466;53.574;9.976;2023-03-13T05:24:36;7.50;99.90
14749;DHT22;7466;53.574;9.976;2023-03-13T05:27:04;7.60;99.90
14749;DHT22;7466;53.574;9.976;2023-03-13T05:29:32;7.60;99.90
14749;DHT22;7466;53.574;9.976;2023-03-13T05:32:01;7.60;99.90
14749;DHT22;7466;53.574;9.976;2023-03-13T05:34:32;7.60;99.90
14749;DHT22;7466;53.574;9.976;2023-03-13T05:36:59;7.60;99.90
14749;DHT22;7466;53.574;9.976;2023-03-13T05:39:27;7.60;99.90
14749;DHT22;7466;53.574;9.976;2023-03-13T05:41:58;7.60;99.90
14749;DHT22;7466;53.574;9.976;2023-03-13T05:44:24;7.60;99.90
14749;DHT22;7466;53.574;9.976;2023-03-13T05:46:51;7.60;99.90
14749;DHT22;7466;53.574;9.976;2023-03-13T05:49:18;7.60;99.90
14749;DHT22;7466;53.574;9.976;2023-03-13T05:51:46;7.60;99.90
14749;DHT22;7466;53.574;9.976;2023-03-13T05:54:13;7.60;99.90
14749;DHT22;7466;53.574;9.976;2023-03-13T05:56:40;7.70;99.90
14749;DHT22;7466;53.574;9.976;2023-03-13T05:59:07;7.70;99.90
14749;DHT22;7466;53.574;9.976;2023-03-13T06:01:34;7.70;99.90
14749;DHT22;7466;53.574;9.976;2023-03-13T06:04:11;7.70;99.90
14749;DHT22;7466;53.574;9.976;2023-03-13T06:06:38;7.80;99.90
14749;DHT22;7466;53.574;9.976;2023-03-13T06:09:06;7.70;99.90
14749;DHT22;7466;53.574;9.976;2023-03-13T06:11:35;7.80;99.90
14749;DHT22;7466;53.574;9.976;2023-03-13T06:14:02;7.80;99.90
14749;DHT22;7466;53.574;9.976;2023-03-13T06:16:29;7.90;99.90
14749;DHT22;7466;53.574;9.976;2023-03-13T06:18:56;7.90;99.90
14749;DHT22;7466;53.574;9.976;2023-03-13T06:21:36;8.00;99.90
14749;DHT22;7466;53.574;9.976;2023-03-13T06:24:06;8.10;99.90
14749;DHT22;7466;53.574;9.976;2023-03-13T06:26:32;8.10;99.90
14749;DHT22;7466;53.574;9.976;2023-03-13T06:29:05;8.20;99.90
14749;DHT22;7466;53.574;9.976;2023-03-13T06:31:32;8.20;99.90
14749;DHT22;7466;53.574;9.976;2023-03-13T06:33:59;8.30;99.90
14749;DHT22;7466;53.574;9.976;2023-03-13T06:36:26;8.30;99.90
14749;DHT22;7466;53.574;9.976;2023-03-13T06:38:53;8.40;99.90
14749;DHT22;7466;53.574;9.976;2023-03-13T06:41:21;8.50;99.90
14749;DHT22;7466;53.574;9.976;2023-03-13T06:43:50;8.60;99.90
14749;DHT22;7466;53.574;9.976;2023-03-13T06:46:19;8.60;99.90
14749;DHT22;7466;53.574;9.976;2023-03-13T06:48:47;8.70;99.90
14749;DHT22;7466;53.574;9.976;2023-03-13T06:51:15;8.70;99.90
14749;DHT22;7466;53.574;9.976;2023-03-13T06:53:42;8.80;99.90
14749;DHT22;7466;53.574;9.976;2023-03-13T06:56:10;8.80;99.90
14749;DHT22;7466;53.574;9.976;2023-03-13T06:58:38;8.80;99.90
14749;DHT22;7466;53.574;9.976;2023-03-13T07:01:20;8.90;99.90
14749;DHT22;7466;53.574;9.976;2023-03-13T07:03:47;8.90;99.90
14749;DHT22;7466;53.574;9.976;2023-03-13T07:06:15;9.00;99.90
14749;DHT22;7466;53.574;9.976;2023-03-13T07:08:43;9.10;99.90
14749;DHT22;7466;53.574;9.976;2023-03-13T07:11:11;9.10;99.90
14749;DHT22;7466;53.574;9.976;2023-03-13T07:13:40;9.10;99.90
14749;DHT22;7466;53.574;9.976;2023-03-13T07:16:09;9.10;99.90
14749;DHT22;7466;53.574;9.976;2023-03-13T07:18:38;9.10;99.90
14749;DHT22;7466;53.574;9.976;2023-03-13T07:21:08;9.10;99.90
14749;DHT22;7466;53.574;9.976;2023-03-13T07:23:35;9.20;99.90
14749;DHT22;7466;53.574;9.976;2023-03-13T07:26:04;9.20;99.90
14749;DHT22;7466;53.574;9.976;2023-03-13T07:28:45;9.30;99.90
14749;DHT22;7466;53.574;9.976;2023-03-13T07:31:13;9.30;99.90
14749;DHT22;7466;53.574;9.976;2023-03-13T07:33:42;9.30;99.90
14749;DHT22;7466;53.574;9.976;2023-03-13T07:36:11;9.30;99.90
14749;DHT22;7466;53.574;9.976;2023-03-13T07:38:40;9.30;99.90
14749;DHT22;7466;53.574;9.976;2023-03-13T07:41:10;9.40;99.90
14749;DHT22;7466;53.574;9.976;2023-03-13T07:43:37;9.40;99.90
14749;DHT22;7466;53.574;9.976;2023-03-13T07:46:10;9.40;99.90
14749;DHT22;7466;53.574;9.976;2023-03-13T07:48:58;9.50;99.90
14749;DHT22;7466;53.574;9.976;2023-03-13T07:51:26;9.50;99.90
14749;DHT22;7466;53.574;9.976;2023-03-13T07:53:53;9.60;99.90
14749;DHT22;7466;53.574;9.976;2023-03-13T07:56:24;9.70;99.90
14749;DHT22;7466;53.574;9.976;2023-03-13T07:58:51;9.80;99.90
14749;DHT22;7466;53.574;9.976;2023-03-13T08:01:21;9.80;99.90
14749;DHT22;7466;53.574;9.976;2023-03-13T08:03:49;9.90;99.90
14749;DHT22;7466;53.574;9.976;2023-03-13T08:06:17;9.90;99.90
14749;DHT22;7466;53.574;9.976;2023-03-13T08:08:45;10.00;99.90
14749;DHT22;7466;53.574;9.976;2023-03-13T08:11:17;10.10;99.90
14749;DHT22;7466;53.574;9.976;2023-03-13T08:13:48;10.10;99.90
14749;DHT22;7466;53.574;9.976;2023-03-13T08:16:18;10.10;99.90
14749;DHT22;7466;53.574;9.976;2023-03-13T08:18:49;10.20;99.90
14749;DHT22;7466;53.574;9.976;2023-03-13T08:21:36;10.30;99.90
14749;DHT22;7466;53.574;9.976;2023-03-13T08:24:14;10.30;99.90
14749;DHT22;7466;53.574;9.976;2023-03-13T08:26:49;10.40;99.90
14749;DHT22;7466;53.574;9.976;2023-03-13T08:29:20;10.40;99.90
14749;DHT22;7466;53.574;9.976;2023-03-13T08:31:50;10.50;99.90
14749;DHT22;7466;53.574;9.976;2023-03-13T08:34:19;10.40;99.90
14749;DHT22;7466;53.574;9.976;2023-03-13T08:36:47;10.50;99.90
14749;DHT22;7466;53.574;9.976;2023-03-13T08:39:16;10.50;99.90
14749;DHT22;7466;53.574;9.976;2023-03-13T08:41:48;10.60;99.90
14749;DHT22;7466;53.574;9.976;2023-03-13T08:44:17;10.70;99.90
14749;DHT22;7466;53.574;9.976;2023-03-13T08:46:44;10.60;99.90
14749;DHT22;7466;53.574;9.976;2023-03-13T08:49:13;10.70;99.90
14749;DHT22;7466;53.574;9.976;2023-03-13T08:51:43;10.70;99.90
14749;DHT22;7466;53.574;9.976;2023-03-13T08:54:17;10.70;99.90
14749;DHT22;7466;53.574;9.976;2023-03-13T08:56:44;10.80;99.90
14749;DHT22;7466;53.574;9.976;2023-03-13T08:59:11;10.80;99.90
14749;DHT22;7466;53.574;9.976;2023-03-13T09:01:40;10.90;99.90
14749;DHT22;7466;53.574;9.976;2023-03-13T09:04:22;11.00;99.90
14749;DHT22;7466;53.574;9.976;2023-03-13T09:06:58;11.00;99.90
14749;DHT22;7466;53.574;9.976;2023-03-13T09:09:31;11.00;99.90
14749;DHT22;7466;53.574;9.976;2023-03-13T09:12:06;11.10;99.90
14749;DHT22;7466;53.574;9.976;2023-03-13T09:14:33;11.20;99.90
14749;DHT22;7466;53.574;9.976;2023-03-13T09:17:00;11.20;99.90
14749;DHT22;7466;53.574;9.976;2023-03-13T09:19:28;11.30;99.90
14749;DHT22;7466;53.574;9.976;2023-03-13T09:22:05;11.30;99.90
14749;DHT22;7466;53.574;9.976;2023-03-13T09:24:34;11.30;99.90
14749;DHT22;7466;53.574;9.976;2023-03-13T09:27:01;11.40;99.90
14749;DHT22;7466;53.574;9.976;2023-03-13T09:29:28;11.40;99.90
14749;DHT22;7466;53.574;9.976;2023-03-13T09:31:54;11.40;99.90
14749;DHT22;7466;53.574;9.976;2023-03-13T09:34:22;11.50;99.90
14749;DHT22;7466;53.574;9.976;2023-03-13T09:36:50;11.50;99.90
14749;DHT22;7466;53.574;9.976;2023-03-13T09:39:18;11.50;99.90
14749;DHT22;7466;53.574;9.976;2023-03-13T09:42:02;11.60;99.90
14749;DHT22;7466;53.574;9.976;2023-03-13T09:44:39;11.60;99.90
14749;DHT22;7466;53.574;9.976;2023-03-13T09:47:12;11.70;99.90
14749;DHT22;7466;53.574;9.976;2023-03-13T09:49:44;11.60;99.90
14749;DHT22;7466;53.574;9.976;2023-03-13T09:52:18;11.60;99.90
14749;DHT22;7466;53.574;9.976;2023-03-13T09:55:02;11.60;99.90
14749;DHT22;7466;53.574;9.976;2023-03-13T09:57:33;11.70;99.90
14749;DHT22;7466;53.574;9.976;2023-03-13T10:00:04;11.70;99.90
14749;DHT22;7466;53.574;9.976;2023-03-13T10:02:37;11.70;99.90
14749;DHT22;7466;53.574;9.976;2023-03-13T10:05:15;11.70;99.90
14749;DHT22;7466;53.574;9.976;2023-03-13T10:07:45;11.70;99.90
14749;DHT22;7466;53.574;9.976;2023-03-13T10:10:15;11.80;99.90
14749;DHT22;7466;53.574;9.976;2023-03-13T10:13:02;11.80;99.90
14749;DHT22;7466;53.574;9.976;2023-03-13T10:15:41;11.80;99.90
14749;DHT22;7466;53.574;9.976;2023-03-13T10:18:24;11.80;99.90
14749;DHT22;7466;53.574;9.976;2023-03-13T10:20:53;11.90;99.90
14749;DHT22;7466;53.574;9.976;2023-03-13T10:23:26;12.00;99.90
14749;DHT22;7466;53.574;9.976;2023-03-13T10:26:00;12.00;99.90
14749;DHT22;7466;53.574;9.976;2023-03-13T10:28:27;12.00;99.90
14749;DHT22;7466;53.574;9.976;2023-03-13T10:30:59;12.00;99.90
14749;DHT22;7466;53.574;9.976;2023-03-13T10:33:28;12.10;99.90
14749;DHT22;7466;53.574;9.976;2023-03-13T10:36:04;12.10;99.90
14749;DHT22;7466;53.574;9.976;2023-03-13T10:38:44;12.40;99.90
14749;DHT22;7466;53.574;9.976;2023-03-13T10:41:22;12.50;99.90
14749;DHT22;7466;53.574;9.976;2023-03-13T10:43:52;12.70;99.90
14749;DHT22;7466;53.574;9.976;2023-03-13T10:46:30;12.80;99.90
14749;DHT22;7466;53.574;9.976;2023-03-13T10:49:00;13.20;99.90
14749;DHT22;7466;53.574;9.976;2023-03-13T10:51:34;13.60;99.90
14749;DHT22;7466;53.574;9.976;2023-03-13T10:54:12;13.80;99.90
14749;DHT22;7466;53.574;9.976;2023-03-13T10:56:42;13.90;99.90
14749;DHT22;7466;53.574;9.976;2023-03-13T10:59:23;13.90;99.90
14749;DHT22;7466;53.574;9.976;2023-03-13T11:01:57;13.60;99.90
14749;DHT22;7466;53.574;9.976;2023-03-13T11:04:29;13.40;99.90
14749;DHT22;7466;53.574;9.976;2023-03-13T11:07:02;13.30;99.90
14749;DHT22;7466;53.574;9.976;2023-03-13T11:09:29;13.10;99.90
14749;DHT22;7466;53.574;9.976;2023-03-13T11:12:12;13.10;99.90
14749;DHT22;7466;53.574;9.976;2023-03-13T11:14:40;13.00;99.90
14749;DHT22;7466;53.574;9.976;2023-03-13T11:17:12;13.10;99.90
14749;DHT22;7466;53.574;9.976;2023-03-13T11:20:07;13.10;99.90
14749;DHT22;7466;53.574;9.976;2023-03-13T11:22:48;13.40;99.90
14749;DHT22;7466;53.574;9.976;2023-03-13T11:25:27;13.80;99.90
14749;DHT22;7466;53.574;9.976;2023-03-13T11:28:21;14.20;99.90
14749;DHT22;7466;53.574;9.976;2023-03-13T11:31:04;14.20;99.90
14749;DHT22;7466;53.574;9.976;2023-03-13T11:33:39;14.60;99.90
14749;DHT22;7466;53.574;9.976;2023-03-13T11:36:18;15.30;99.90
14749;DHT22;7466;53.574;9.976;2023-03-13T11:38:50;15.60;99.90
14749;DHT22;7466;53.574;9.976;2023-03-13T11:41:30;15.40;99.90
14749;DHT22;7466;53.574;9.976;2023-03-13T11:44:26;15.00;99.90
14749;DHT22;7466;53.574;9.976;2023-03-13T11:49:59;14.80;99.90
14749;DHT22;7466;53.574;9.976;2023-03-13T11:52:47;14.70;99.90
14749;DHT22;7466;53.574;9.976;2023-03-13T11:55:27;14.60;99.90
14749;DHT22;7466;53.574;9.976;2023-03-13T11:58:25;14.50;99.90
14749;DHT22;7466;53.574;9.976;2023-03-13T12:00:57;14.60;99.90
14749;DHT22;7466;53.574;9.976;2023-03-13T12:03:33;14.90;99.90
14749;DHT22;7466;53.574;9.976;2023-03-13T12:06:02;15.60;99.90
14749;DHT22;7466;53.574;9.976;2023-03-13T12:08:34;15.80;99.90
14749;DHT22;7466;53.574;9.976;2023-03-13T12:11:08;15.50;99.90
14749;DHT22;7466;53.574;9.976;2023-03-13T12:13:40;15.40;99.90
14749;DHT22;7466;53.574;9.976;2023-03-13T12:16:13;15.20;99.90
14749;DHT22;7466;53.574;9.976;2023-03-13T12:18:43;15.50;99.90
14749;DHT22;7466;53.574;9.976;2023-03-13T12:21:16;15.80;99.90
14749;DHT22;7466;53.574;9.976;2023-03-13T12:23:49;16.10;99.90
14749;DHT22;7466;53.574;9.976;2023-03-13T12:26:20;16.20;99.90
14749;DHT22;7466;53.574;9.976;2023-03-13T12:28:55;16.00;99.90
14749;DHT22;7466;53.574;9.976;2023-03-13T12:31:35;16.30;60.50
14749;DHT22;7466;53.574;9.976;2023-03-13T12:34:11;16.70;37.80
14749;DHT22;7466;53.574;9.976;2023-03-13T12:36:45;16.40;33.00
14749;DHT22;7466;53.574;9.976;2023-03-13T12:39:29;16.20;41.50
14749;DHT22;7466;53.574;9.976;2023-03-13T12:42:30;16.00;52.70
14749;DHT22;7466;53.574;9.976;2023-03-13T12:44:59;16.30;52.20
14749;DHT22;7466;53.574;9.976;2023-03-13T12:47:31;16.70;43.60
14749;DHT22;7466;53.574;9.976;2023-03-13T12:50:27;17.00;12.90
14749;DHT22;7466;53.574;9.976;2023-03-13T12:53:08;16.90;6.10
14749;DHT22;7466;53.574;9.976;2023-03-13T12:56:04;17.00;1.00
14749;DHT22;7466;53.574;9.976;2023-03-13T12:58:43;16.70;1.00
14749;DHT22;7466;53.574;9.976;2023-03-13T13:01:26;16.50;3.60
14749;DHT22;7466;53.574;9.976;2023-03-13T13:03:59;16.20;1.00
14749;DHT22;7466;53.574;9.976;2023-03-13T13:06:48;16.10;1.00
14749;DHT22;7466;53.574;9.976;2023-03-13T13:09:19;16.20;1.00
14749;DHT22;7466;53.574;9.976;2023-03-13T13:11:48;16.40;1.00
14749;DHT22;7466;53.574;9.976;2023-03-13T13:17:58;16.40;1.00
14749;DHT22;7466;53.574;9.976;2023-03-13T13:20:36;16.20;1.00
14749;DHT22;7466;53.574;9.976;2023-03-13T13:23:22;16.30;1.00
14749;DHT22;7466;53.574;9.976;2023-03-13T13:25:51;16.40;1.00
14749;DHT22;7466;53.574;9.976;2023-03-13T13:28:34;16.60;1.00
14749;DHT22;7466;53.574;9.976;2023-03-13T13:34:06;16.80;1.00
14749;DHT22;7466;53.574;9.976;2023-03-13T13:36:41;16.90;1.00
14749;DHT22;7466;53.574;9.976;2023-03-13T13:39:35;16.60;1.00
14749;DHT22;7466;53.574;9.976;2023-03-13T13:42:38;17.10;1.00
14749;DHT22;7466;53.574;9.976;2023-03-13T13:45:24;17.00;1.00
14749;DHT22;7466;53.574;9.976;2023-03-13T13:48:23;17.00;1.00
14749;DHT22;7466;53.574;9.976;2023-03-13T13:51:21;17.00;1.00
14749;DHT22;7466;53.574;9.976;2023-03-13T13:53:58;16.90;1.00
14749;DHT22;7466;53.574;9.976;2023-03-13T13:56:40;16.70;1.00
14749;DHT22;7466;53.574;9.976;2023-03-13T13:59:29;16.70;1.00
14749;DHT22;7466;53.574;9.976;2023-03-13T14:02:31;17.30;1.00
14749;DHT22;7466;53.574;9.976;2023-03-13T14:05:02;17.60;1.00
14749;DHT22;7466;53.574;9.976;2023-03-13T14:07:43;17.90;1.00
14749;DHT22;7466;53.574;9.976;2023-03-13T14:10:20;17.80;1.00
14749;DHT22;7466;53.574;9.976;2023-03-13T14:12:56;17.60;1.00
14749;DHT22;7466;53.574;9.976;2023-03-13T14:15:27;17.20;1.00
14749;DHT22;7466;53.574;9.976;2023-03-13T14:18:10;16.90;1.00
14749;DHT22;7466;53.574;9.976;2023-03-13T14:20:39;16.80;1.00
14749;DHT22;7466;53.574;9.976;2023-03-13T14:23:08;16.80;1.00
14749;DHT22;7466;53.574;9.976;2023-03-13T14:25:46;16.70;1.00
14749;DHT22;7466;53.574;9.976;2023-03-13T14:28:18;16.70;1.00
14749;DHT22;7466;53.574;9.976;2023-03-13T14:30:46;16.80;1.00
14749;DHT22;7466;53.574;9.976;2023-03-13T14:33:14;16.80;1.00
14749;DHT22;7466;53.574;9.976;2023-03-13T14:35:41;16.80;1.00
14749;DHT22;7466;53.574;9.976;2023-03-13T14:38:16;16.80;1.00
14749;DHT22;7466;53.574;9.976;2023-03-13T14:40:45;16.80;1.00
14749;DHT22;7466;53.574;9.976;2023-03-13T14:43:19;16.80;1.00
14749;DHT22;7466;53.574;9.976;2023-03-13T14:45:47;16.80;1.00
14749;DHT22;7466;53.574;9.976;2023-03-13T14:48:19;16.90;1.00
14749;DHT22;7466;53.574;9.976;2023-03-13T14:50:48;16.90;1.00
14749;DHT22;7466;53.574;9.976;2023-03-13T14:53:18;16.70;1.00
14749;DHT22;7466;53.574;9.976;2023-03-13T14:56:09;16.80;1.00
14749;DHT22;7466;53.574;9.976;2023-03-13T14:58:36;16.70;1.00
14749;DHT22;7466;53.574;9.976;2023-03-13T15:01:14;16.70;1.00
14749;DHT22;7466;53.574;9.976;2023-03-13T15:03:47;16.70;1.00
14749;DHT22;7466;53.574;9.976;2023-03-13T15:06:16;16.60;1.00
14749;DHT22;7466;53.574;9.976;2023-03-13T15:08:45;16.60;1.00
14749;DHT22;7466;53.574;9.976;2023-03-13T15:11:25;16.60;1.00
14749;DHT22;7466;53.574;9.976;2023-03-13T15:14:00;16.50;1.00
14749;DHT22;7466;53.574;9.976;2023-03-13T15:16:27;16.60;1.00
14749;DHT22;7466;53.574;9.976;2023-03-13T15:18:54;16.60;1.00
14749;DHT22;7466;53.574;9.976;2023-03-13T15:21:27;16.70;1.00
14749;DHT22;7466;53.574;9.976;2023-03-13T15:23:58;16.70;1.00
14749;DHT22;7466;53.574;9.976;2023-03-13T15:26:28;16.60;1.00
14749;DHT22;7466;53.574;9.976;2023-03-13T15:28:59;16.50;1.00
14749;DHT22;7466;53.574;9.976;2023-03-13T15:31:28;16.40;1.00
14749;DHT22;7466;53.574;9.976;2023-03-13T15:33:57;16.40;1.00
14749;DHT22;7466;53.574;9.976;2023-03-13T15:36:26;16.40;1.00
14749;DHT22;7466;53.574;9.976;2023-03-13T15:38:53;16.40;1.00
14749;DHT22;7466;53.574;9.976;2023-03-13T15:41:21;16.40;1.00
14749;DHT22;7466;53.574;9.976;2023-03-13T15:44:06;16.40;1.00
14749;DHT22;7466;53.574;9.976;2023-03-13T15:46:34;16.30;1.00
14749;DHT22;7466;53.574;9.976;2023-03-13T15:49:02;16.30;1.00
14749;DHT22;7466;53.574;9.976;2023-03-13T15:51:35;16.30;1.00
14749;DHT22;7466;53.574;9.976;2023-03-13T15:54:03;16.30;1.00
14749;DHT22;7466;53.574;9.976;2023-03-13T15:56:33;16.30;1.00
14749;DHT22;7466;53.574;9.976;2023-03-13T15:59:10;16.40;1.00
14749;DHT22;7466;53.574;9.976;2023-03-13T16:01:37;16.40;1.00
14749;DHT22;7466;53.574;9.976;2023-03-13T16:04:04;16.40;1.00
14749;DHT22;7466;53.574;9.976;2023-03-13T16:06:32;16.30;1.00
14749;DHT22;7466;53.574;9.976;2023-03-13T16:09:01;16.40;1.00
14749;DHT22;7466;53.574;9.976;2023-03-13T16:11:28;16.40;1.00
14749;DHT22;7466;53.574;9.976;2023-03-13T16:13:55;16.50;1.00
14749;DHT22;7466;53.574;9.976;2023-03-13T16:16:25;16.50;1.00
14749;DHT22;7466;53.574;9.976;2023-03-13T16:18:54;16.50;1.00
14749;DHT22;7466;53.574;9.976;2023-03-13T16:21:22;16.40;1.00
14749;DHT22;7466;53.574;9.976;2023-03-13T16:23:52;16.40;1.00
14749;DHT22;7466;53.574;9.976;2023-03-13T16:26:21;16.30;1.00
14749;DHT22;7466;53.574;9.976;2023-03-13T16:28:49;16.30;1.00
14749;DHT22;7466;53.574;9.976;2023-03-13T16:31:19;16.30;1.00
14749;DHT22;7466;53.574;9.976;2023-03-13T16:33:48;16.30;1.00
14749;DHT22;7466;53.574;9.976;2023-03-13T16:36:17;16.20;1.00